Terminal Aerodrome Forecast
Issued by NWS

Current Version | Previous Version | Text Only | Print | Product List | Glossary On
Versions: 1 2 3 4 5 6 7 8 9 10 11 12 13
000
FTUS46 KPDT 140500
TAFYKM
TAF
KYKM 140534Z 1406/1506 30010KT P6SM -SHRA SCT060 BKN100
     FM140900 29010KT P6SM BKN120
     FM141900 31010KT P6SM SCT120=

USA.gov is the U.S. government's official web portal to all federal, state and local government web resources and services.